createdAt,value
2018-07-12T04:01:03.637Z,15.51
2018-07-12T04:02:03.516Z,15.45
2018-07-12T04:03:56.348Z,15.52
2018-07-12T04:04:56.093Z,15.47
2018-07-12T04:06:48.790Z,15.47
2018-07-12T04:07:48.664Z,15.53
2018-07-12T04:09:41.345Z,15.55
2018-07-12T04:10:41.237Z,15.62
2018-07-12T04:12:33.938Z,15.59
2018-07-12T04:13:33.818Z,15.60
2018-07-12T04:15:26.492Z,15.58
2018-07-12T04:16:26.385Z,15.65
2018-07-12T04:18:19.090Z,15.67
2018-07-12T04:19:18.964Z,15.68
2018-07-12T04:21:11.659Z,15.70
2018-07-12T04:22:11.556Z,15.71
2018-07-12T04:24:04.249Z,15.70
2018-07-12T04:25:04.125Z,15.75
2018-07-12T04:26:56.801Z,15.83
2018-07-12T04:27:56.701Z,15.81
2018-07-12T04:29:49.402Z,15.91
2018-07-12T04:30:49.279Z,15.81
2018-07-12T04:32:41.982Z,15.88
2018-07-12T04:33:41.868Z,15.86
2018-07-12T04:35:34.545Z,15.84
2018-07-12T04:36:34.438Z,15.83
2018-07-12T04:38:27.135Z,15.81
2018-07-12T04:39:27.022Z,15.86
2018-07-12T04:41:19.702Z,15.81
2018-07-12T04:42:19.594Z,15.88
2018-07-12T04:44:12.296Z,16.02
2018-07-12T04:45:12.171Z,15.92
2018-07-12T04:47:04.887Z,15.96
2018-07-12T04:48:04.749Z,16.00
2018-07-12T04:49:57.454Z,16.02
2018-07-12T04:50:57.329Z,15.95
2018-07-12T04:52:50.010Z,15.98
2018-07-12T04:53:49.901Z,16.10
2018-07-12T04:55:42.607Z,16.08
2018-07-12T04:56:42.486Z,16.21
2018-07-12T04:58:35.248Z,16.18
2018-07-12T04:59:35.072Z,16.16
2018-07-12T05:01:27.762Z,16.32
2018-07-12T05:02:27.639Z,16.33
2018-07-12T05:04:20.321Z,16.37
2018-07-12T05:05:20.225Z,16.36
2018-07-12T05:07:12.923Z,16.49
2018-07-12T05:08:12.854Z,16.51
2018-07-12T05:10:05.605Z,16.52
2018-07-12T05:11:05.434Z,16.51
2018-07-12T05:12:58.195Z,16.55
2018-07-12T05:13:58.018Z,16.51
2018-07-12T05:15:50.740Z,16.63
2018-07-12T05:16:50.592Z,16.62
2018-07-12T05:18:43.294Z,16.65
2018-07-12T05:19:43.179Z,16.69
2018-07-12T05:21:35.992Z,16.65
2018-07-12T05:22:35.832Z,16.76
2018-07-12T05:24:28.536Z,16.73
2018-07-12T05:25:28.417Z,16.82
2018-07-12T05:27:21.132Z,16.80
2018-07-12T05:28:20.994Z,16.92
2018-07-12T05:30:13.694Z,16.87
2018-07-12T05:31:14.104Z,16.95
2018-07-12T05:33:06.822Z,16.92
2018-07-12T05:34:06.405Z,16.99
2018-07-12T05:35:59.081Z,16.90
2018-07-12T05:36:58.976Z,16.94
2018-07-12T05:38:51.715Z,16.94
2018-07-12T05:39:51.582Z,17.03
2018-07-12T05:41:44.274Z,17.13
2018-07-12T05:42:44.192Z,17.10
2018-07-12T05:44:36.917Z,17.27
2018-07-12T05:45:36.769Z,17.25
2018-07-12T05:47:29.473Z,17.12
2018-07-12T05:48:29.340Z,17.25
2018-07-12T05:50:22.025Z,17.30
2018-07-12T05:51:21.930Z,17.25
2018-07-12T05:53:14.629Z,17.36
2018-07-12T05:54:14.507Z,17.42
2018-07-12T05:56:07.192Z,17.52
2018-07-12T05:57:07.090Z,17.63
2018-07-12T05:58:59.794Z,17.69
2018-07-12T05:59:59.670Z,17.63
2018-07-12T06:01:52.360Z,17.80
2018-07-12T06:02:52.253Z,17.87
2018-07-12T06:04:44.944Z,17.92
2018-07-12T06:05:44.830Z,17.83
2018-07-12T06:07:37.518Z,18.02
2018-07-12T06:08:37.404Z,18.10
2018-07-12T06:10:30.113Z,18.17
2018-07-12T06:11:29.988Z,18.10
2018-07-12T06:13:22.677Z,18.32
2018-07-12T06:14:22.568Z,18.41
2018-07-12T06:16:15.279Z,18.54
2018-07-12T06:17:15.147Z,18.49
2018-07-12T06:19:07.836Z,18.68
2018-07-12T06:20:07.734Z,18.74
2018-07-12T06:22:00.456Z,19.00
2018-07-12T06:23:00.337Z,19.63
2018-07-12T06:24:53.019Z,21.68
2018-07-12T06:25:52.919Z,22.94
2018-07-12T06:27:45.621Z,24.86
2018-07-12T06:28:45.512Z,25.86
2018-07-12T06:30:38.208Z,26.90
2018-07-12T06:31:38.108Z,27.05
2018-07-12T06:33:30.826Z,26.91
2018-07-12T06:34:30.729Z,27.21
2018-07-12T06:36:23.412Z,28.08
2018-07-12T06:37:23.315Z,28.21
2018-07-12T06:39:16.039Z,28.64
2018-07-12T06:40:15.927Z,28.58
2018-07-12T06:42:08.640Z,27.72
2018-07-12T06:43:08.539Z,27.46
2018-07-12T06:45:01.268Z,24.29
2018-07-12T06:46:01.158Z,24.94
2018-07-12T06:47:53.862Z,27.42
2018-07-12T06:48:53.775Z,28.06
2018-07-12T06:50:46.500Z,28.55
2018-07-12T06:51:46.384Z,28.55
2018-07-12T06:53:39.098Z,28.83
2018-07-12T06:54:39.007Z,29.17
2018-07-12T06:56:31.751Z,30.07
2018-07-12T06:57:31.638Z,30.35
2018-07-12T06:59:24.348Z,30.67
2018-07-12T07:00:24.254Z,30.91
2018-07-12T07:02:16.984Z,31.01
2018-07-12T07:03:16.873Z,31.30
2018-07-12T07:05:09.617Z,31.28
2018-07-12T07:06:09.496Z,31.33
2018-07-12T07:08:02.261Z,30.54
2018-07-12T07:09:02.139Z,30.88
2018-07-12T07:10:54.847Z,31.31
2018-07-12T07:11:54.753Z,31.59
2018-07-12T07:13:47.487Z,32.05
2018-07-12T07:14:47.432Z,31.45
2018-07-12T07:16:40.096Z,31.62
2018-07-12T07:17:40.008Z,31.80
2018-07-12T07:19:32.742Z,31.87
2018-07-12T07:20:32.641Z,31.67
2018-07-12T07:22:25.350Z,31.49
2018-07-12T07:23:25.263Z,31.47
2018-07-12T07:25:17.997Z,31.45
2018-07-12T07:26:17.925Z,31.58
2018-07-12T07:28:10.609Z,31.94
2018-07-12T07:29:10.539Z,31.81
2018-07-12T07:31:03.258Z,32.10
2018-07-12T07:32:03.163Z,32.24
2018-07-12T07:33:55.899Z,32.84
2018-07-12T07:34:55.788Z,33.01
2018-07-12T07:36:48.505Z,33.02
2018-07-12T07:37:48.419Z,32.76
2018-07-12T07:39:41.152Z,32.37
2018-07-12T07:40:41.052Z,32.93
2018-07-12T07:42:33.766Z,32.20
2018-07-12T07:43:33.679Z,31.80
2018-07-12T07:45:26.410Z,32.81
2018-07-12T07:46:26.307Z,33.09
2018-07-12T07:48:19.026Z,32.74
2018-07-12T07:49:18.999Z,32.74
2018-07-12T07:51:11.677Z,33.11
2018-07-12T07:52:11.577Z,33.36
2018-07-12T07:54:04.287Z,33.62
2018-07-12T07:55:04.207Z,32.42
2018-07-12T07:56:56.947Z,32.35
2018-07-12T07:57:56.839Z,32.83
2018-07-12T07:59:49.581Z,33.26
2018-07-12T08:00:49.474Z,32.72
2018-07-12T08:02:42.221Z,32.62
2018-07-12T08:03:42.136Z,32.84
2018-07-12T08:05:34.889Z,32.09
2018-07-12T08:06:34.775Z,32.46
2018-07-12T08:08:27.503Z,32.42
2018-07-12T08:09:27.454Z,32.54
2018-07-12T08:11:20.161Z,32.80
2018-07-12T08:12:20.055Z,32.79
2018-07-12T08:14:12.773Z,33.39
2018-07-12T08:15:12.684Z,33.37
2018-07-12T08:17:05.424Z,33.66
2018-07-12T08:18:05.320Z,33.44
2018-07-12T08:19:58.033Z,33.01
2018-07-12T08:20:57.948Z,32.94
2018-07-12T08:22:50.686Z,32.81
2018-07-12T08:23:50.579Z,33.20
2018-07-12T08:25:43.328Z,32.89
2018-07-12T08:26:43.261Z,32.83
2018-07-12T08:28:35.935Z,32.20
2018-07-12T08:29:35.854Z,31.72
2018-07-12T08:31:28.582Z,31.12
2018-07-12T08:32:28.480Z,31.71
2018-07-12T08:34:21.197Z,31.59
2018-07-12T08:35:21.114Z,32.10
2018-07-12T08:37:13.848Z,32.75
2018-07-12T08:38:13.739Z,32.89
2018-07-12T08:40:06.463Z,32.53
2018-07-12T08:41:06.374Z,32.74
2018-07-12T08:42:59.116Z,32.31
2018-07-12T08:43:59.008Z,32.38
2018-07-12T08:45:51.731Z,32.03
2018-07-12T08:46:51.652Z,31.93
2018-07-12T08:48:44.462Z,31.28
2018-07-12T08:49:44.274Z,30.49
2018-07-12T08:51:37.015Z,30.16
2018-07-12T08:52:36.904Z,30.07
2018-07-12T08:54:29.619Z,29.95
2018-07-12T08:55:29.526Z,29.10
2018-07-12T08:57:22.258Z,28.58
2018-07-12T08:58:22.152Z,28.30
2018-07-12T09:00:14.864Z,28.18
2018-07-12T09:01:14.781Z,27.68
2018-07-12T09:03:07.650Z,27.33
2018-07-12T09:04:07.387Z,26.99
2018-07-12T09:06:00.096Z,26.96
2018-07-12T09:06:59.995Z,26.86
2018-07-12T09:08:52.712Z,26.59
2018-07-12T09:09:52.609Z,26.41
2018-07-12T09:11:45.456Z,26.19
2018-07-12T09:12:45.216Z,25.94
2018-07-12T09:14:37.929Z,25.71
2018-07-12T09:15:37.869Z,25.82
2018-07-12T09:17:30.526Z,25.60
2018-07-12T09:18:30.426Z,25.39
2018-07-12T09:20:23.146Z,25.29
2018-07-12T09:21:23.031Z,25.49
2018-07-12T09:23:15.743Z,25.48
2018-07-12T09:24:15.652Z,25.54
2018-07-12T09:26:08.360Z,25.52
2018-07-12T09:27:08.249Z,25.51
2018-07-12T09:29:01.046Z,25.75
2018-07-12T09:30:00.856Z,26.03
2018-07-12T09:31:53.570Z,26.34
2018-07-12T09:32:53.460Z,26.41
2018-07-12T09:34:46.209Z,26.42
2018-07-12T09:35:46.059Z,26.24
2018-07-12T09:37:38.785Z,26.39
2018-07-12T09:38:38.665Z,26.27
2018-07-12T09:40:31.385Z,26.24
2018-07-12T09:41:31.273Z,26.39
2018-07-12T09:43:23.978Z,26.22
2018-07-12T09:44:23.878Z,26.11
2018-07-12T09:46:16.596Z,26.15
2018-07-12T09:47:16.550Z,25.84
2018-07-12T09:49:09.207Z,25.71
2018-07-12T09:50:09.091Z,25.57
2018-07-12T09:52:01.803Z,26.00
2018-07-12T09:53:01.684Z,26.17
2018-07-12T09:54:54.386Z,26.17
2018-07-12T09:55:54.313Z,26.27
2018-07-12T09:57:47.001Z,25.89
2018-07-12T09:58:46.888Z,26.00
2018-07-12T10:00:39.584Z,25.81
2018-07-12T10:01:39.489Z,25.69
2018-07-12T10:03:32.206Z,25.75
2018-07-12T10:04:32.096Z,25.66
2018-07-12T10:06:24.804Z,25.64
2018-07-12T10:07:24.700Z,25.96
2018-07-12T10:09:17.392Z,25.97
2018-07-12T10:10:17.299Z,26.11
2018-07-12T10:12:10.157Z,25.96
2018-07-12T10:13:09.896Z,26.01
2018-07-12T10:15:02.737Z,25.86
2018-07-12T10:16:02.499Z,25.76
2018-07-12T10:17:55.355Z,25.82
2018-07-12T10:18:55.094Z,25.97
2018-07-12T10:20:47.790Z,25.91
2018-07-12T10:21:47.698Z,25.76
2018-07-12T10:23:40.414Z,25.89
2018-07-12T10:24:40.295Z,25.96
2018-07-12T10:26:33.028Z,26.07
2018-07-12T10:27:32.901Z,26.34
2018-07-12T10:29:25.750Z,26.72
2018-07-12T10:30:25.522Z,26.79
2018-07-12T10:32:18.380Z,26.22
2018-07-12T10:33:18.125Z,25.66
2018-07-12T10:35:10.824Z,25.15
2018-07-12T10:36:10.730Z,25.17
2018-07-12T10:38:03.472Z,25.26
2018-07-12T10:39:03.346Z,25.63
2018-07-12T10:40:56.182Z,25.48
2018-07-12T10:41:55.945Z,25.70
2018-07-12T10:43:48.663Z,25.51
2018-07-12T10:44:48.554Z,25.49
2018-07-12T10:46:41.250Z,25.60
2018-07-12T10:47:41.154Z,25.79
2018-07-12T10:49:33.871Z,25.91
2018-07-12T10:50:33.750Z,26.16
2018-07-12T10:52:26.455Z,25.91
2018-07-12T10:53:26.356Z,25.79
2018-07-12T10:55:19.214Z,25.75
2018-07-12T10:56:18.949Z,25.94
2018-07-12T10:58:11.642Z,26.26
2018-07-12T10:59:11.548Z,26.42
2018-07-12T11:01:04.263Z,26.67
2018-07-12T11:02:04.147Z,26.45
2018-07-12T11:03:57.026Z,26.61
2018-07-12T11:04:56.753Z,26.57
2018-07-12T11:06:49.601Z,26.45
2018-07-12T11:07:49.360Z,26.57
2018-07-12T11:09:42.092Z,26.91
2018-07-12T11:10:41.974Z,26.97
2018-07-12T11:12:34.676Z,26.69
2018-07-12T11:13:34.580Z,26.69
2018-07-12T11:15:27.302Z,26.84
2018-07-12T11:16:27.194Z,26.99
2018-07-12T11:18:19.883Z,26.81
2018-07-12T11:19:19.789Z,26.76
2018-07-12T11:21:12.537Z,26.31
2018-07-12T11:22:12.388Z,26.30
2018-07-12T11:24:05.091Z,26.45
2018-07-12T11:25:04.993Z,26.31
2018-07-12T11:26:57.861Z,26.44
2018-07-12T11:27:57.601Z,26.69
2018-07-12T11:29:50.306Z,26.93
2018-07-12T11:30:50.208Z,27.01
2018-07-12T11:32:43.073Z,26.41
2018-07-12T11:33:42.812Z,26.24
2018-07-12T11:35:35.537Z,26.03
2018-07-12T11:36:35.414Z,25.88
2018-07-12T11:38:28.108Z,25.99
2018-07-12T11:39:28.011Z,25.99
2018-07-12T11:41:20.732Z,26.22
2018-07-12T11:42:20.611Z,26.32
2018-07-12T11:44:13.310Z,26.41
2018-07-12T11:45:13.210Z,26.52
2018-07-12T11:47:05.930Z,26.37
2018-07-12T11:48:05.810Z,26.27
2018-07-12T11:49:58.510Z,26.68
2018-07-12T11:50:58.523Z,26.99
2018-07-12T11:52:51.184Z,26.76
2018-07-12T11:53:51.059Z,26.72
2018-07-12T11:55:43.741Z,26.91
2018-07-12T11:56:44.368Z,26.87
2018-07-12T11:58:36.429Z,27.04
2018-07-12T11:59:36.303Z,27.12
2018-07-12T12:01:29.176Z,26.67
2018-07-12T12:02:28.961Z,26.67
2018-07-12T12:04:21.613Z,26.69
2018-07-12T12:05:21.515Z,26.75
2018-07-12T12:07:14.398Z,26.82
2018-07-12T12:08:14.115Z,26.69
2018-07-12T12:10:06.824Z,26.47
2018-07-12T12:11:06.730Z,26.64
2018-07-12T12:12:59.526Z,26.72
2018-07-12T12:13:59.329Z,26.52
2018-07-12T12:15:52.110Z,26.41
2018-07-12T12:16:52.008Z,26.47
2018-07-12T12:18:44.696Z,26.74
2018-07-12T12:19:44.599Z,26.94
2018-07-12T12:21:37.355Z,27.34
2018-07-12T12:22:37.239Z,27.43
2018-07-12T12:24:30.032Z,27.62
2018-07-12T12:25:29.881Z,27.76
2018-07-12T12:27:22.634Z,27.59
2018-07-12T12:28:22.508Z,27.59
2018-07-12T12:30:15.215Z,27.04
2018-07-12T12:31:15.108Z,26.94
2018-07-12T12:33:08.099Z,26.37
2018-07-12T12:34:07.715Z,26.26
2018-07-12T12:36:00.451Z,26.06
2018-07-12T12:37:00.348Z,25.97
2018-07-12T12:38:53.536Z,25.76
2018-07-12T12:39:53.094Z,25.75
2018-07-12T12:41:46.254Z,25.85
2018-07-12T12:42:46.032Z,25.85
2018-07-12T12:44:38.746Z,26.06
2018-07-12T12:45:38.641Z,26.15
2018-07-12T12:47:31.358Z,26.30
2018-07-12T12:48:31.239Z,26.31
2018-07-12T12:50:24.112Z,26.20
2018-07-12T12:51:23.848Z,26.22
2018-07-12T12:53:16.540Z,26.30
2018-07-12T12:54:16.453Z,26.26
2018-07-12T12:56:09.157Z,26.42
2018-07-12T12:57:09.038Z,26.53
2018-07-12T12:59:01.739Z,26.75
2018-07-12T13:00:01.700Z,26.57
2018-07-12T13:01:54.349Z,26.59
2018-07-12T13:02:54.237Z,26.72
2018-07-12T13:04:46.939Z,26.86
2018-07-12T13:05:46.838Z,26.96
2018-07-12T13:07:39.557Z,27.11
2018-07-12T13:08:39.439Z,27.36
2018-07-12T13:10:32.139Z,27.27
2018-07-12T13:11:32.044Z,27.27
2018-07-12T13:13:24.902Z,27.05
2018-07-12T13:14:24.742Z,26.96
2018-07-12T13:16:17.376Z,27.00
2018-07-12T13:17:17.278Z,27.12
2018-07-12T13:19:09.988Z,27.24
2018-07-12T13:20:09.877Z,27.34
2018-07-12T13:22:02.572Z,27.45
2018-07-12T13:23:02.479Z,27.41
2018-07-12T13:24:55.192Z,27.27
2018-07-12T13:25:55.172Z,27.08
2018-07-12T13:27:47.837Z,26.94
2018-07-12T13:28:47.676Z,26.87
2018-07-12T13:30:40.386Z,26.96
2018-07-12T13:31:40.278Z,26.91
2018-07-12T13:33:32.998Z,26.81
2018-07-12T13:34:32.875Z,26.87
2018-07-12T13:36:25.584Z,26.78
2018-07-12T13:37:25.490Z,26.75
2018-07-12T13:39:18.199Z,26.75
2018-07-12T13:40:18.086Z,26.68
2018-07-12T13:42:10.785Z,26.68
2018-07-12T13:43:10.691Z,26.63
2018-07-12T13:45:03.446Z,26.59
2018-07-12T13:46:03.321Z,26.54
2018-07-12T13:47:56.020Z,26.50
2018-07-12T13:48:55.913Z,26.53
2018-07-12T13:50:48.632Z,26.64
2018-07-12T13:51:48.510Z,26.52
2018-07-12T13:53:41.205Z,26.63
2018-07-12T13:54:41.110Z,26.75
2018-07-12T13:56:33.827Z,26.69
2018-07-12T13:57:33.713Z,26.87
2018-07-12T13:59:26.399Z,26.96
2018-07-12T14:00:26.301Z,27.01
2018-07-12T14:02:19.019Z,27.31
2018-07-12T14:03:18.908Z,27.34
2018-07-12T14:05:11.627Z,27.51
2018-07-12T14:06:11.542Z,27.45
2018-07-12T14:08:04.216Z,27.68
2018-07-12T14:09:04.116Z,27.84
2018-07-12T14:10:56.830Z,28.02
2018-07-12T14:11:56.728Z,27.96
2018-07-12T14:13:49.477Z,27.94
2018-07-12T14:14:49.357Z,27.87
2018-07-12T14:16:42.208Z,28.01
2018-07-12T14:17:42.026Z,28.03
2018-07-12T14:19:34.705Z,28.17
2018-07-12T14:20:34.631Z,28.21
2018-07-12T14:22:27.381Z,28.24
2018-07-12T14:23:27.221Z,28.35
2018-07-12T14:25:19.920Z,28.48
2018-07-12T14:26:19.821Z,28.42
2018-07-12T14:28:12.549Z,28.35
2018-07-12T14:29:12.435Z,27.96
2018-07-12T14:31:05.176Z,27.72
2018-07-12T14:32:05.071Z,27.75
2018-07-12T14:33:57.788Z,27.69
2018-07-12T14:34:57.690Z,27.68
2018-07-12T14:36:50.541Z,27.55
2018-07-12T14:37:50.281Z,27.61
2018-07-12T14:39:43.008Z,27.51
2018-07-12T14:40:42.897Z,27.51
2018-07-12T14:42:35.617Z,27.55
2018-07-12T14:43:35.513Z,27.64
2018-07-12T14:45:28.230Z,27.84
2018-07-12T14:46:28.133Z,27.84
2018-07-12T14:48:20.988Z,27.84
2018-07-12T14:49:20.734Z,27.93
2018-07-12T14:51:13.659Z,28.03
2018-07-12T14:52:13.339Z,27.86
2018-07-12T14:54:06.106Z,27.80
2018-07-12T14:55:05.975Z,27.81
2018-07-12T14:56:58.669Z,27.81
2018-07-12T14:57:58.572Z,27.68
2018-07-12T14:59:51.299Z,27.51
2018-07-12T15:00:51.189Z,27.33
2018-07-12T15:02:44.101Z,27.31
2018-07-12T15:03:43.789Z,27.26
2018-07-12T15:05:36.528Z,27.19
2018-07-12T15:06:36.408Z,27.24
2018-07-12T15:08:29.119Z,27.15
2018-07-12T15:09:29.035Z,27.12
2018-07-12T15:11:21.879Z,27.23
2018-07-12T15:12:21.621Z,27.19
2018-07-12T15:14:14.325Z,26.96
2018-07-12T15:15:14.226Z,26.76
2018-07-12T15:17:06.945Z,26.67
2018-07-12T15:18:06.828Z,26.47
2018-07-12T15:19:59.529Z,26.42
2018-07-12T15:20:59.433Z,26.42
2018-07-12T15:22:52.145Z,26.31
2018-07-12T15:23:52.038Z,26.07
2018-07-12T15:25:44.747Z,25.78
2018-07-12T15:26:44.629Z,25.96
2018-07-12T15:28:37.329Z,25.79
2018-07-12T15:29:37.276Z,25.62
2018-07-12T15:31:29.980Z,25.44
2018-07-12T15:32:29.825Z,25.24
2018-07-12T15:34:22.523Z,24.87
2018-07-12T15:35:22.473Z,24.85
2018-07-12T15:37:15.150Z,24.51
2018-07-12T15:38:15.018Z,24.52
2018-07-12T15:40:07.713Z,24.52
2018-07-12T15:41:07.615Z,24.44
2018-07-12T15:43:00.331Z,24.29
2018-07-12T15:44:00.268Z,24.30
2018-07-12T15:45:52.903Z,24.44
2018-07-12T15:46:52.808Z,24.29
2018-07-12T15:48:45.523Z,23.78
2018-07-12T15:49:45.439Z,23.62
2018-07-12T15:51:38.247Z,23.34
2018-07-12T15:52:38.035Z,23.47
2018-07-12T15:54:30.689Z,23.45
2018-07-12T15:55:30.593Z,23.40
2018-07-12T15:57:23.305Z,23.35
2018-07-12T15:58:23.196Z,23.29
2018-07-12T16:00:15.881Z,23.19
2018-07-12T16:01:15.781Z,23.07
2018-07-12T16:03:08.482Z,22.61
2018-07-12T16:04:08.365Z,22.26
2018-07-12T16:06:01.067Z,22.02
2018-07-12T16:07:00.963Z,21.97
2018-07-12T16:08:53.675Z,22.12
2018-07-12T16:09:53.558Z,22.15
2018-07-12T16:11:46.290Z,22.26
2018-07-12T16:12:46.185Z,22.22
2018-07-12T16:14:38.894Z,22.12
2018-07-12T16:15:38.784Z,21.94
2018-07-12T16:17:31.660Z,21.86
2018-07-12T16:18:31.386Z,21.83
2018-07-12T16:20:24.106Z,21.94
2018-07-12T16:21:23.964Z,22.07
2018-07-12T16:23:16.663Z,22.15
2018-07-12T16:24:16.558Z,22.23
2018-07-12T16:26:09.770Z,22.20
2018-07-12T16:27:09.652Z,22.26
2018-07-12T16:29:02.370Z,22.39
2018-07-12T16:30:02.281Z,22.34
2018-07-12T16:31:54.930Z,22.52
2018-07-12T16:32:54.829Z,22.57
2018-07-12T16:34:47.540Z,22.71
2018-07-12T16:35:47.423Z,22.69
2018-07-12T16:37:40.114Z,22.82
2018-07-12T16:38:40.007Z,22.88
2018-07-12T16:40:32.733Z,22.91
2018-07-12T16:41:32.604Z,22.94
2018-07-12T16:43:25.294Z,23.03
2018-07-12T16:44:25.202Z,23.14
2018-07-12T16:46:17.917Z,23.21
2018-07-12T16:47:17.793Z,23.25
2018-07-12T16:49:10.490Z,23.37
2018-07-12T16:50:10.386Z,23.38
2018-07-12T16:52:03.107Z,23.41
2018-07-12T16:53:02.990Z,23.38
2018-07-12T16:54:55.677Z,23.24
2018-07-12T16:55:55.582Z,23.32
2018-07-12T16:57:48.292Z,23.26
2018-07-12T16:58:48.176Z,23.24
2018-07-12T17:00:41.370Z,23.22
2018-07-12T17:01:41.269Z,23.32
2018-07-12T17:03:33.995Z,23.19
2018-07-12T17:04:33.875Z,23.22
2018-07-12T17:06:26.604Z,23.21
2018-07-12T17:07:26.502Z,23.19
2018-07-12T17:09:19.162Z,23.21
2018-07-12T17:10:19.059Z,23.18
2018-07-12T17:12:11.773Z,23.21
2018-07-12T17:13:11.657Z,23.24
2018-07-12T17:15:04.333Z,23.19
2018-07-12T17:16:04.252Z,23.21
2018-07-12T17:17:56.977Z,23.25
2018-07-12T17:18:56.859Z,23.28
2018-07-12T17:20:49.556Z,23.25
2018-07-12T17:21:49.444Z,23.25
2018-07-12T17:23:42.195Z,23.24
2018-07-12T17:24:42.074Z,23.34
2018-07-12T17:26:34.762Z,23.40
2018-07-12T17:27:34.663Z,23.34
2018-07-12T17:29:27.430Z,23.42
2018-07-12T17:30:27.262Z,23.41
2018-07-12T17:32:19.948Z,23.41
2018-07-12T17:33:19.850Z,23.41
2018-07-12T17:35:12.575Z,23.47
2018-07-12T17:36:12.456Z,23.48
2018-07-12T17:38:05.151Z,23.40
2018-07-12T17:39:05.055Z,23.42
2018-07-12T17:40:57.798Z,23.45
2018-07-12T17:41:57.646Z,23.60
2018-07-12T17:43:50.373Z,23.57
2018-07-12T17:44:50.246Z,23.57
2018-07-12T17:46:42.939Z,23.63
2018-07-12T17:47:42.978Z,23.62
2018-07-12T17:49:35.556Z,23.56
2018-07-12T17:50:35.444Z,23.57
2018-07-12T17:52:28.135Z,23.71
2018-07-12T17:53:28.033Z,23.89
2018-07-12T17:55:20.751Z,24.19
2018-07-12T17:56:20.729Z,24.42
2018-07-12T17:58:13.339Z,24.96
2018-07-12T17:59:13.249Z,24.89
2018-07-12T18:01:05.949Z,24.75
2018-07-12T18:02:05.838Z,24.66
2018-07-12T18:03:58.532Z,24.55
2018-07-12T18:04:58.435Z,24.34
2018-07-12T18:06:51.163Z,24.22
2018-07-12T18:07:51.053Z,24.15
2018-07-12T18:09:43.721Z,24.03
2018-07-12T18:10:43.636Z,23.93
2018-07-12T18:12:36.360Z,23.99
2018-07-12T18:13:36.268Z,23.94
2018-07-12T18:15:28.948Z,24.07
2018-07-12T18:16:28.845Z,24.09
2018-07-12T18:18:21.643Z,24.07
2018-07-12T18:19:21.515Z,24.07
2018-07-12T18:21:14.252Z,23.97
2018-07-12T18:22:14.174Z,23.93
2018-07-12T18:24:06.869Z,23.89
2018-07-12T18:25:06.774Z,23.87
2018-07-12T18:26:59.492Z,23.82
2018-07-12T18:27:59.385Z,23.79
2018-07-12T18:29:52.059Z,23.75
2018-07-12T18:30:51.957Z,23.63
2018-07-12T18:32:44.691Z,23.55
2018-07-12T18:33:44.579Z,23.59
2018-07-12T18:35:37.292Z,23.45
2018-07-12T18:36:37.193Z,23.41
2018-07-12T18:38:30.049Z,23.32
2018-07-12T18:39:29.802Z,23.37
2018-07-12T18:41:22.596Z,23.24
2018-07-12T18:42:22.391Z,23.19
2018-07-12T18:44:15.099Z,23.04
2018-07-12T18:45:14.986Z,23.03
2018-07-12T18:47:07.818Z,23.01
2018-07-12T18:48:07.586Z,23.04
2018-07-12T18:50:00.350Z,22.85
2018-07-12T18:51:00.173Z,22.85
2018-07-12T18:52:52.872Z,22.71
2018-07-12T18:53:52.768Z,22.67
2018-07-12T18:55:45.873Z,22.51
2018-07-12T18:56:45.356Z,22.52
2018-07-12T18:58:38.068Z,22.52
2018-07-12T18:59:37.953Z,22.44
2018-07-12T19:01:30.642Z,22.49
2018-07-12T19:02:30.543Z,22.44
2018-07-12T19:04:23.251Z,22.34
2018-07-12T19:05:23.135Z,22.23
2018-07-12T19:07:15.828Z,22.29
2018-07-12T19:08:15.743Z,22.20
2018-07-12T19:10:08.617Z,22.12
2018-07-12T19:11:08.345Z,22.07
2018-07-12T19:13:01.034Z,22.00
2018-07-12T19:14:00.941Z,21.97
2018-07-12T19:15:53.642Z,21.94
2018-07-12T19:16:53.519Z,21.90
2018-07-12T19:18:46.225Z,21.85
2018-07-12T19:19:46.123Z,21.83
2018-07-12T19:21:38.831Z,21.74
2018-07-12T19:22:38.711Z,21.76
2018-07-12T19:24:31.427Z,21.73
2018-07-12T19:25:31.299Z,21.67
2018-07-12T19:27:24.011Z,21.59
2018-07-12T19:28:23.886Z,21.61
2018-07-12T19:30:16.597Z,21.58
2018-07-12T19:31:16.470Z,21.59
2018-07-12T19:33:09.178Z,21.46
2018-07-12T19:34:09.112Z,21.40
2018-07-12T19:36:01.806Z,21.43
2018-07-12T19:37:01.662Z,21.36
2018-07-12T19:38:54.346Z,21.23
2018-07-12T19:39:54.245Z,21.22
2018-07-12T19:41:46.975Z,21.27
2018-07-12T19:42:46.854Z,21.22
2018-07-12T19:44:39.545Z,21.18
2018-07-12T19:45:39.443Z,21.11
2018-07-12T19:47:32.148Z,21.09
2018-07-12T19:48:32.024Z,20.98
2018-07-12T19:50:24.709Z,21.04
2018-07-12T19:51:24.606Z,20.98
2018-07-12T19:53:17.317Z,20.94
2018-07-12T19:54:17.195Z,20.96
2018-07-12T19:56:09.882Z,20.96
2018-07-12T19:57:09.859Z,20.93
2018-07-12T19:59:02.567Z,20.93
2018-07-12T20:00:02.405Z,21.00
2018-07-12T20:01:55.067Z,20.93
2018-07-12T20:02:54.962Z,20.91
2018-07-12T20:04:47.687Z,20.86
2018-07-12T20:05:47.582Z,20.85
2018-07-12T20:07:40.305Z,20.88
2018-07-12T20:08:40.164Z,20.82
2018-07-12T20:10:32.824Z,20.79
2018-07-12T20:11:32.729Z,20.85
2018-07-12T20:13:25.463Z,20.78
2018-07-12T20:14:25.331Z,20.74
2018-07-12T20:16:18.028Z,20.67
2018-07-12T20:17:17.902Z,20.71
2018-07-12T20:19:10.628Z,20.71
2018-07-12T20:20:10.480Z,20.60
2018-07-12T20:22:03.162Z,20.58
2018-07-12T20:23:03.102Z,20.58
2018-07-12T20:24:55.806Z,20.54
2018-07-12T20:25:55.655Z,20.53
2018-07-12T20:27:48.348Z,20.53
2018-07-12T20:28:48.232Z,20.48
2018-07-12T20:30:41.597Z,20.48
2018-07-12T20:31:40.809Z,20.44
2018-07-12T20:33:33.565Z,20.44
2018-07-12T20:34:33.393Z,20.41
2018-07-12T20:36:26.111Z,20.37
2018-07-12T20:37:25.975Z,20.34
2018-07-12T20:39:18.765Z,20.32
2018-07-12T20:40:18.590Z,20.27
2018-07-12T20:42:11.251Z,20.25
2018-07-12T20:43:11.145Z,20.22
2018-07-12T20:45:03.847Z,20.15
2018-07-12T20:46:03.722Z,20.08
2018-07-12T20:47:56.453Z,20.20
2018-07-12T20:48:56.401Z,20.07
2018-07-12T20:50:49.018Z,20.04
2018-07-12T20:51:48.897Z,19.95
2018-07-12T20:53:41.609Z,20.05
2018-07-12T20:54:41.583Z,19.97
2018-07-12T20:56:34.172Z,20.02
2018-07-12T20:57:34.077Z,20.01
2018-07-12T20:59:26.841Z,19.95
2018-07-12T21:00:26.677Z,19.89
2018-07-12T21:02:19.345Z,19.93
2018-07-12T21:03:19.244Z,19.93
2018-07-12T21:05:11.952Z,19.89
2018-07-12T21:06:11.830Z,19.92
2018-07-12T21:08:04.511Z,19.85
2018-07-12T21:09:04.412Z,19.79
2018-07-12T21:10:57.114Z,19.74
2018-07-12T21:11:56.998Z,19.78
2018-07-12T21:13:49.675Z,19.68
2018-07-12T21:14:49.574Z,19.65
2018-07-12T21:16:42.277Z,19.61
2018-07-12T21:17:42.158Z,19.67
2018-07-12T21:19:34.840Z,19.63
2018-07-12T21:20:34.740Z,19.55
2018-07-12T21:22:27.454Z,19.53
2018-07-12T21:23:27.328Z,19.50
2018-07-12T21:25:20.008Z,19.46
2018-07-12T21:26:19.902Z,19.50
2018-07-12T21:28:12.610Z,19.56
2018-07-12T21:29:12.485Z,19.53
2018-07-12T21:31:05.182Z,19.52
2018-07-12T21:32:05.073Z,19.43
2018-07-12T21:33:58.365Z,19.45
2018-07-12T21:34:58.171Z,19.42
2018-07-12T21:36:51.369Z,19.42
2018-07-12T21:37:51.245Z,19.37
2018-07-12T21:39:43.933Z,19.30
2018-07-12T21:40:43.830Z,19.24
2018-07-12T21:42:36.541Z,19.23
2018-07-12T21:43:36.421Z,19.24
2018-07-12T21:45:29.102Z,19.25
2018-07-12T21:46:28.997Z,19.23
2018-07-12T21:48:21.705Z,19.20
2018-07-12T21:49:21.580Z,19.23
2018-07-12T21:51:14.268Z,19.17
2018-07-12T21:52:14.169Z,19.17
2018-07-12T21:54:06.869Z,19.23
2018-07-12T21:55:06.745Z,19.15
2018-07-12T21:56:59.440Z,19.13
2018-07-12T21:57:59.348Z,19.17
2018-07-12T21:59:52.037Z,19.15
